createdAt,value
2023-04-11T00:02:44.423Z,6.40
2023-04-11T00:07:52.896Z,6.30
2023-04-11T00:13:04.542Z,6.30
2023-04-11T00:18:20.946Z,6.20
2023-04-11T00:34:43.027Z,6.00
2023-04-11T00:45:38.673Z,5.90
2023-04-11T00:56:26.484Z,5.80
2023-04-11T01:01:44.510Z,5.70
2023-04-11T01:06:52.984Z,5.70
2023-04-11T01:11:58.536Z,5.60
2023-04-11T01:17:03.838Z,5.40
2023-04-11T01:27:52.558Z,5.40
2023-04-11T01:32:59.354Z,5.30
2023-04-11T01:38:06.211Z,5.30
2023-04-11T01:43:11.483Z,5.30
2023-04-11T01:48:17.180Z,5.20
2023-04-11T01:53:22.676Z,5.20
2023-04-11T01:58:27.846Z,5.10
2023-04-11T02:03:35.176Z,5.10
2023-04-11T02:08:41.285Z,5.10
2023-04-11T02:13:47.236Z,5.00
2023-04-11T02:18:54.524Z,5.00
2023-04-11T02:24:00.977Z,4.90
2023-04-11T02:29:06.298Z,4.80
2023-04-11T02:34:11.637Z,4.80
2023-04-11T02:39:17.216Z,4.80
2023-04-11T02:44:22.744Z,4.80
2023-04-11T02:49:28.147Z,4.80
2023-04-11T02:54:33.433Z,4.80
2023-04-11T02:59:39.826Z,4.70
2023-04-11T03:04:46.694Z,4.70
2023-04-11T03:09:52.540Z,4.60
2023-04-11T03:14:57.916Z,4.60
2023-04-11T03:20:05.044Z,4.50
2023-04-11T03:25:10.828Z,4.50
2023-04-11T03:30:16.356Z,4.40
2023-04-11T03:35:21.690Z,4.10
2023-04-11T03:40:27.197Z,4.20
2023-04-11T03:45:32.601Z,4.30
2023-04-11T03:50:37.953Z,4.30
2023-04-11T03:55:43.580Z,4.40
2023-04-11T04:00:49.063Z,4.50
2023-04-11T04:05:54.866Z,4.60
2023-04-11T04:11:00.739Z,4.60
2023-04-11T04:16:06.428Z,4.70
2023-04-11T04:21:11.675Z,4.80
2023-04-11T04:26:17.327Z,4.90
2023-04-11T04:31:24.791Z,5.00
2023-04-11T04:36:32.106Z,5.10
2023-04-11T04:41:37.345Z,5.40
2023-04-11T04:46:44.998Z,5.70
2023-04-11T04:51:53.107Z,5.90
2023-04-11T04:57:05.712Z,6.00
2023-04-11T05:07:39.890Z,6.30
2023-04-11T05:12:46.295Z,6.50
2023-04-11T05:17:53.435Z,6.60
2023-04-11T05:23:00.040Z,6.80
2023-04-11T05:28:06.203Z,7.00
2023-04-11T05:33:14.819Z,7.20
2023-04-11T05:38:21.133Z,7.40
2023-04-11T05:43:26.509Z,7.50
2023-04-11T05:48:33.836Z,7.80
2023-04-11T05:53:39.414Z,8.10
2023-04-11T05:58:44.883Z,8.40
2023-04-11T06:03:50.730Z,8.70
2023-04-11T06:08:56.527Z,9.00
2023-04-11T06:14:02.466Z,9.30
2023-04-11T06:19:08.829Z,9.70
2023-04-11T06:24:15.910Z,10.20
2023-04-11T06:29:21.209Z,10.50
2023-04-11T06:34:28.602Z,10.40
2023-04-11T06:39:34.714Z,10.40
2023-04-11T06:44:40.069Z,10.50
2023-04-11T06:49:45.776Z,10.80
2023-04-11T06:54:51.462Z,11.00
2023-04-11T06:59:56.848Z,11.20
2023-04-11T07:05:03.512Z,11.40
2023-04-11T07:10:09.809Z,11.70
2023-04-11T07:15:17.448Z,12.10
2023-04-11T07:20:22.770Z,12.40
2023-04-11T07:25:30.401Z,12.60
2023-04-11T07:30:37.113Z,12.80
2023-04-11T07:35:42.480Z,13.00
2023-04-11T07:40:50.845Z,13.40
2023-04-11T07:46:00.018Z,13.50
2023-04-11T07:51:05.609Z,13.60
2023-04-11T07:56:13.540Z,13.70
2023-04-11T08:01:34.065Z,13.90
2023-04-11T08:06:43.986Z,14.10
2023-04-11T08:11:49.241Z,14.30
2023-04-11T08:16:55.228Z,14.80
2023-04-11T08:22:00.910Z,15.20
2023-04-11T08:27:07.187Z,15.60
2023-04-11T08:32:17.129Z,15.50
2023-04-11T08:37:23.991Z,15.70
2023-04-11T08:43:09.212Z,15.50
2023-04-11T08:54:18.854Z,15.60
2023-04-11T08:59:25.710Z,15.50
2023-04-11T09:10:25.542Z,15.60
2023-04-11T09:15:51.450Z,15.40
2023-04-11T09:21:28.328Z,15.10
2023-04-11T09:26:31.685Z,15.00
2023-04-11T09:31:53.089Z,15.20
2023-04-11T09:36:58.567Z,15.40
2023-04-11T09:42:07.038Z,15.60
2023-04-11T09:47:13.093Z,15.60
2023-04-11T09:52:20.545Z,15.50
2023-04-11T09:57:27.186Z,15.60
2023-04-11T10:02:36.648Z,15.80
2023-04-11T10:08:04.991Z,15.80
2023-04-11T10:13:29.272Z,16.20
2023-04-11T10:18:35.404Z,16.20
2023-04-11T10:24:04.209Z,16.50
2023-04-11T10:29:12.576Z,16.80
2023-04-11T10:34:17.783Z,17.00
2023-04-11T10:39:43.655Z,17.20
2023-04-11T10:45:13.714Z,17.80
2023-04-11T10:50:31.539Z,18.00
2023-04-11T10:55:52.715Z,17.10
2023-04-11T11:01:31.273Z,17.00
2023-04-11T11:06:54.499Z,17.00
2023-04-11T11:12:18.427Z,16.90
2023-04-11T11:17:23.803Z,17.30
2023-04-11T11:23:18.278Z,16.90
2023-04-11T11:28:23.858Z,17.20
2023-04-11T11:33:29.080Z,17.70
2023-04-11T11:38:34.431Z,17.80
2023-04-11T11:43:40.462Z,18.20
2023-04-11T11:49:00.545Z,17.40
2023-04-11T11:54:10.613Z,17.30
2023-04-11T11:59:18.517Z,16.90
2023-04-11T12:04:24.701Z,17.50
2023-04-11T12:09:33.574Z,17.60
2023-04-11T12:14:39.439Z,17.90
2023-04-11T12:19:44.566Z,17.40
2023-04-11T12:24:53.220Z,18.10
2023-04-11T12:29:58.374Z,17.40
2023-04-11T12:35:05.200Z,17.00
2023-04-11T12:40:14.080Z,16.80
2023-04-11T12:45:42.162Z,16.90
2023-04-11T13:12:12.787Z,16.60
2023-04-11T13:17:19.325Z,16.60
2023-04-11T13:22:24.819Z,16.60
2023-04-11T13:27:32.341Z,16.40
2023-04-11T13:32:43.902Z,16.10
2023-04-11T13:38:11.852Z,15.40
2023-04-11T13:43:31.228Z,15.00
2023-04-11T13:49:07.657Z,15.00
2023-04-11T13:54:30.848Z,14.60
2023-04-11T13:59:36.966Z,13.80
2023-04-11T14:05:09.137Z,13.40
2023-04-11T14:10:33.792Z,13.30
2023-04-11T14:15:41.095Z,13.00
2023-04-11T14:20:46.406Z,12.40
2023-04-11T14:25:52.130Z,12.50
2023-04-11T14:30:57.798Z,12.30
2023-04-11T14:36:04.639Z,11.80
2023-04-11T14:41:11.896Z,11.60
2023-04-11T14:46:19.032Z,11.80
2023-04-11T14:51:26.598Z,11.80
2023-04-11T14:56:35.634Z,11.90
2023-04-11T15:01:44.652Z,12.00
2023-04-11T15:06:50.931Z,12.10
2023-04-11T15:11:58.198Z,11.90
2023-04-11T15:17:04.678Z,11.50
2023-04-11T15:22:09.766Z,11.50
2023-04-11T15:27:14.889Z,11.40
2023-04-11T15:32:20.206Z,11.50
2023-04-11T15:37:26.799Z,11.50
2023-04-11T15:42:39.956Z,11.70
2023-04-11T15:47:45.223Z,11.80
2023-04-11T15:52:52.967Z,11.90
2023-04-11T15:58:01.874Z,11.80
2023-04-11T16:03:10.782Z,11.70
2023-04-11T16:08:20.290Z,11.70
2023-04-11T16:13:29.294Z,11.60
2023-04-11T16:18:36.348Z,11.40
2023-04-11T16:23:43.144Z,11.20
2023-04-11T16:28:50.054Z,11.20
2023-04-11T16:33:57.017Z,10.90
2023-04-11T16:39:04.741Z,10.80
2023-04-11T16:44:14.404Z,10.70
2023-04-11T16:49:20.018Z,10.50
2023-04-11T16:54:25.317Z,10.40
2023-04-11T16:59:31.216Z,10.20
2023-04-11T17:04:42.659Z,10.20
2023-04-11T17:09:54.353Z,10.10
2023-04-11T17:15:04.629Z,10.00
2023-04-11T17:20:14.235Z,10.00
2023-04-11T17:25:25.924Z,9.90
2023-04-11T17:30:38.145Z,9.80
2023-04-11T17:35:46.137Z,9.80
2023-04-11T17:40:57.594Z,9.80
2023-04-11T17:46:03.681Z,9.80
2023-04-11T17:51:11.850Z,9.80
2023-04-11T17:56:44.105Z,9.80
2023-04-11T18:01:54.219Z,9.80
2023-04-11T18:07:01.901Z,9.80
2023-04-11T18:12:07.319Z,9.70
2023-04-11T18:17:14.923Z,9.70
2023-04-11T18:28:12.661Z,9.60
2023-04-11T18:33:20.327Z,9.50
2023-04-11T18:38:32.259Z,9.60
2023-04-11T18:43:43.509Z,9.50
2023-04-11T18:48:48.749Z,9.50
2023-04-11T18:53:55.142Z,9.40
2023-04-11T18:59:06.135Z,9.40
2023-04-11T19:04:12.477Z,9.30
2023-04-11T19:09:29.116Z,9.20
2023-04-11T19:14:35.650Z,9.10
2023-04-11T19:19:43.406Z,9.00
2023-04-11T19:24:50.697Z,8.90
2023-04-11T19:29:57.184Z,8.80
2023-04-11T19:35:02.554Z,8.70
2023-04-11T19:40:10.915Z,8.70
2023-04-11T19:45:20.602Z,8.70
2023-04-11T19:50:26.068Z,8.60
2023-04-11T19:55:33.127Z,8.60
2023-04-11T20:00:39.404Z,8.60
2023-04-11T20:05:46.091Z,8.60
2023-04-11T20:10:52.106Z,8.50
2023-04-11T20:15:57.362Z,8.50
2023-04-11T20:21:03.784Z,8.60
2023-04-11T20:26:09.106Z,8.60
2023-04-11T20:31:14.312Z,8.50
2023-04-11T20:36:19.799Z,8.50
2023-04-11T20:41:26.768Z,8.50
2023-04-11T20:46:32.630Z,8.50
2023-04-11T20:51:37.952Z,8.40
2023-04-11T20:56:43.447Z,8.40
2023-04-11T21:01:48.801Z,8.40
2023-04-11T21:06:57.191Z,8.50
2023-04-11T21:12:02.648Z,8.40
2023-04-11T21:17:09.459Z,8.40
2023-04-11T21:22:14.712Z,8.40
2023-04-11T21:27:19.901Z,8.40
2023-04-11T21:32:25.198Z,8.30
2023-04-11T21:37:30.562Z,8.30
2023-04-11T21:42:35.889Z,8.30
2023-04-11T21:47:41.564Z,8.20
2023-04-11T21:52:48.029Z,8.20
2023-04-11T21:57:53.111Z,8.20
2023-04-11T22:02:58.448Z,8.10
2023-04-11T22:08:14.008Z,8.10
2023-04-11T22:13:20.560Z,8.10
2023-04-11T22:18:28.868Z,8.00
2023-04-11T22:23:34.863Z,8.00
2023-04-11T22:28:40.176Z,8.00
2023-04-11T22:33:45.330Z,8.00
2023-04-11T22:38:50.859Z,8.00
2023-04-11T22:43:56.123Z,8.00
2023-04-11T22:49:02.103Z,8.00
2023-04-11T22:54:08.770Z,7.90
2023-04-11T22:59:14.015Z,7.90
2023-04-11T23:04:20.362Z,7.80
2023-04-11T23:09:25.655Z,7.80
2023-04-11T23:14:32.290Z,7.80
2023-04-11T23:19:37.420Z,7.70
2023-04-11T23:24:42.551Z,7.60
2023-04-11T23:29:52.855Z,7.50
2023-04-11T23:34:58.068Z,7.40
2023-04-11T23:40:04.887Z,7.30
2023-04-11T23:45:11.837Z,7.30
2023-04-11T23:50:18.091Z,7.20
2023-04-11T23:55:23.871Z,7.10
